Mackenzie - Mackenzie River: Past 24 Hour Conditions

 

Stony Rapids Airport

01:00 AM CST 31 July 2014
This table is a summary of hourly weather conditions for the past 24 hours.
Date / Time
(CST)
Wind(knots) Conditions Visibility(km) Pressure(kPa) Air tempC) Relative humidity(%) Dew pointC) Humidex
31 July 2014
1:00 E 3 Clear 16 101.5 17 68 11 *
0:00 E 3 Clear 16 101.5 17 67 11 *
30 July 2014
23:00 E 5 Clear 16 101.5 21 54 12 *
22:00 ENE 3 Partly Cloudy 16 101.5 21 59 13 *
21:00 ESE 4 Mainly Sunny 16 101.5 25 43 12 27
20:00 ESE 7 Mainly Sunny 16 101.5 29 29 10 31
19:00 SE 5 Mainly Sunny 16 101.5 31 24 8 31
18:00 ESE 7 Sunny 16 101.5 32 23 9 33
17:00 SSE 5 Sunny 16 101.6 31 25 9 31
16:00 SSW 4 Mainly Sunny 16 101.6 32 24 9 32
15:00 SE 7 Mainly Sunny 16 101.7 32 26 10 33
14:00 S 4 Mainly Sunny 16 101.7 31 25 9 32
13:00 ESE 3 Sunny 16 101.7 30 31 11 32
12:00 NE 5 Haze 6 101.8 29 41 14 32
11:00 ENE 2 Haze 3 101.8 26 49 15 29
10:00 ENE 3 Sunny 11 101.8 23 53 13 25
9:00 ENE 2 Sunny 11 101.8 20 68 14 *
8:00 ESE 4 Sunny 11 101.9 17 72 12 *
7:00 E 2 Sunny 16 101.9 14 83 11 *
6:00 SE 2 Sunny 16 101.9 12 92 11 *
5:00 calm Sunny 16 101.9 11 90 9 *
4:00 SE 2 Clear 16 101.8 11 92 9 *
3:00 SSE 2 Clear 16 101.8 12 85 10 *
2:00 ESE 2 Clear 16 101.8 13 83 10 *
1:00 ESE 4 Clear 16 101.8 14 81 11 *
 
Map of Mackenzie - Mackenzie River marine weather areas Great Slave Lake - 45141 Great Slave Lake North Arm - 45150 Herschel Island Komakuk Beach Shingle Point Airport Aklavik Airport Cape Parry Airport Fort Good Hope Airport Tulita Airport Fort Providence Fort Reliance Fort Resolution Airport Fort Simpson Airport Hay River/Merlyn Carter Airport Inner Whaleback Rocks Inuvik Airport Keats Point Norman Wells Airport Paulatuk Airport Pelly Island Tuktoyaktuk Airport Wrigley Airport Yellowknife Airport Kugluktuk Airport Hat Island Cambridge Bay Airport Cape Peel West Stefansson Island Ulukhaktok Airport Sachs Harbour Airport Thomsen River Egg Island Fort Chipewyan Airport Stony Rapids Airport Liverpool Bay Little Chicago Lutselke Airport Storm Hills Croker River Prairie River Uranium City Bathurst Inlet Gateshead Island
Legend: buoyBuoy land stationLand Station